Time;durP1;ratioP1;P1;durP2;ratioP2;P2;SDS_P1;SDS_P2;PMS_P1;PMS_P2;Temp;Humidity;BMP_temperature;BMP_pressure;BME280_temperature;BME280_humidity;BME280_pressure;Samples;Min_cycle;Max_cycle;Signal;HPM_P1;HPM_P2
2021/09/27 06:36:59;;;;;;;4.63;1.40;;;;;;;;;;1063563;27;99872;-57
2021/09/27 06:37:30;;;;;;;2.40;1.48;;;;;;;;;;1056448;27;101689;-57
2021/09/27 06:38:04;;;;;;;4.10;1.58;;;;;;;;;;1053501;27;99833;-58
2021/09/27 06:38:37;;;;;;;2.25;1.65;;;;;;;;;;1050643;27;100414;-57
2021/09/27 06:39:16;;;;;;;2.15;1.48;;;;;;;;;;1051304;27;99986;-58
2021/09/27 06:39:48;;;;;;;3.03;1.40;;;;;;;;;;1049930;27;100570;-58
2021/09/27 06:40:20;;;;;;;4.43;1.58;;;;;;;;;;1049282;27;99399;-58
2021/09/27 06:40:51;;;;;;;2.88;1.40;;;;;;;;;;1051299;27;101256;-58
2021/09/27 06:41:25;;;;;;;2.90;1.60;;;;;;;;;;1053331;27;100154;-58
2021/09/27 06:41:56;;;;;;;3.17;1.48;;;;;;;;;;1051877;27;100577;-58
2021/09/27 06:42:27;;;;;;;2.53;1.58;;;;;;;;;;1045159;27;99750;-58
2021/09/27 06:42:58;;;;;;;3.22;1.45;;;;;;;;;;1042834;27;101390;-58
2021/09/27 06:43:29;;;;;;;1.55;1.30;;;;;;;;;;1045088;27;100086;-58
2021/09/27 06:44:00;;;;;;;3.03;1.60;;;;;;;;;;1043775;27;103036;-58
2021/09/27 06:44:31;;;;;;;2.47;1.48;;;;;;;;;;1048969;27;99321;-60
2021/09/27 06:45:04;;;;;;;2.53;1.63;;;;;;;;;;1050345;27;101378;-60
2021/09/27 06:45:35;;;;;;;2.83;1.60;;;;;;;;;;1050058;27;99956;-61
2021/09/27 06:46:06;;;;;;;4.03;1.42;;;;;;;;;;1052078;27;100911;-61
2021/09/27 06:46:37;;;;;;;5.70;1.60;;;;;;;;;;1049113;27;99898;-60
2021/09/27 06:47:08;;;;;;;2.95;1.65;;;;;;;;;;1043364;27;101406;-60
2021/09/27 06:47:39;;;;;;;2.00;1.52;;;;;;;;;;1045349;27;100055;-60
2021/09/27 06:48:10;;;;;;;2.40;1.48;;;;;;;;;;1048250;27;100815;-60
2021/09/27 06:48:41;;;;;;;3.72;1.60;;;;;;;;;;1053297;27;100102;-58
2021/09/27 06:49:12;;;;;;;2.50;1.48;;;;;;;;;;1052165;27;100417;-59
2021/09/27 06:49:43;;;;;;;3.45;1.42;;;;;;;;;;1053715;27;99897;-58
2021/09/27 06:50:14;;;;;;;3.67;1.80;;;;;;;;;;1052340;27;100405;-57
2021/09/27 06:50:46;;;;;;;2.20;1.77;;;;;;;;;;1053715;27;99928;-57
2021/09/27 06:51:17;;;;;;;2.63;1.80;;;;;;;;;;1052330;27;100407;-57
2021/09/27 06:51:48;;;;;;;1.77;1.67;;;;;;;;;;1053706;27;99881;-57
2021/09/27 06:52:18;;;;;;;5.20;1.25;;;;;;;;;;1047713;27;100212;-57
2021/09/27 06:52:49;;;;;;;3.03;1.40;;;;;;;;;;1049196;27;99980;-57
2021/09/27 06:53:21;;;;;;;3.08;1.50;;;;;;;;;;1047874;27;100485;-57
2021/09/27 06:53:52;;;;;;;3.60;1.35;;;;;;;;;;1049180;27;100213;-57
2021/09/27 06:54:23;;;;;;;5.20;1.70;;;;;;;;;;1052129;27;100349;-58
2021/09/27 06:54:54;;;;;;;1.77;1.60;;;;;;;;;;1053646;27;100083;-57
2021/09/27 06:55:26;;;;;;;3.65;1.90;;;;;;;;;;1052398;27;100424;-57
2021/09/27 06:56:00;;;;;;;2.17;1.67;;;;;;;;;;1053685;27;100013;-57
2021/09/27 06:56:31;;;;;;;3.17;1.48;;;;;;;;;;1052089;27;101467;-58
2021/09/27 06:57:02;;;;;;;2.63;1.73;;;;;;;;;;1053811;27;100021;-57
2021/09/27 06:57:33;;;;;;;5.38;1.80;;;;;;;;;;1052434;27;100544;-58
2021/09/27 06:58:05;;;;;;;2.40;1.60;;;;;;;;;;1053356;27;100002;-58
2021/09/27 06:58:35;;;;;;;3.90;1.40;;;;;;;;;;1052007;27;101590;-57
2021/09/27 06:59:07;;;;;;;3.10;1.58;;;;;;;;;;1053571;27;99885;-57
2021/09/27 06:59:38;;;;;;;4.70;1.75;;;;;;;;;;1052292;27;100445;-58
2021/09/27 07:00:12;;;;;;;3.13;1.60;;;;;;;;;;1048773;27;100188;-57
2021/09/27 07:00:43;;;;;;;3.17;1.50;;;;;;;;;;1043342;27;100517;-57
2021/09/27 07:01:13;;;;;;;5.25;1.55;;;;;;;;;;1044645;27;99936;-57
2021/09/27 07:01:45;;;;;;;5.43;2.13;;;;;;;;;;1044230;27;100193;-57
2021/09/27 07:02:18;;;;;;;4.63;1.92;;;;;;;;;;1049086;27;99984;-57
2021/09/27 07:02:48;;;;;;;3.40;2.00;;;;;;;;;;1052177;27;100388;-56
2021/09/27 07:03:19;;;;;;;5.00;1.88;;;;;;;;;;1053742;27;99849;-57
2021/09/27 07:03:50;;;;;;;6.80;1.95;;;;;;;;;;1051670;27;101395;-57
2021/09/27 07:04:21;;;;;;;4.38;1.77;;;;;;;;;;1053551;27;99869;-57
2021/09/27 07:04:52;;;;;;;2.15;1.50;;;;;;;;;;1052214;27;100396;-58
2021/09/27 07:05:23;;;;;;;6.72;1.85;;;;;;;;;;1053475;27;99948;-57
2021/09/27 07:05:54;;;;;;;6.65;1.70;;;;;;;;;;1052297;27;100076;-57
2021/09/27 07:06:25;;;;;;;3.25;1.85;;;;;;;;;;1053588;27;99794;-57
2021/09/27 07:06:57;;;;;;;7.85;2.10;;;;;;;;;;1052255;27;100193;-57
2021/09/27 07:07:27;;;;;;;6.82;1.95;;;;;;;;;;1053674;27;99220;-57
2021/09/27 07:08:00;;;;;;;7.00;2.00;;;;;;;;;;1052038;27;101597;-57
2021/09/27 07:08:31;;;;;;;3.60;1.75;;;;;;;;;;1053303;27;100067;-58
2021/09/27 07:09:02;;;;;;;4.40;2.30;;;;;;;;;;1052115;27;100404;-58
2021/09/27 07:09:35;;;;;;;19.45;1.70;;;;;;;;;;1053818;27;99996;-57
2021/09/27 07:10:09;;;;;;;3.67;2.00;;;;;;;;;;1052144;27;100767;-58
2021/09/27 07:10:40;;;;;;;7.32;2.00;;;;;;;;;;1049088;27;100110;-58
2021/09/27 07:11:13;;;;;;;4.85;1.85;;;;;;;;;;1034578;28;100420;-57
2021/09/27 07:11:45;;;;;;;4.70;1.67;;;;;;;;;;1036403;28;99834;-58
2021/09/27 07:12:15;;;;;;;6.63;2.00;;;;;;;;;;1026938;28;100390;-58
2021/09/27 07:12:46;;;;;;;5.53;1.80;;;;;;;;;;1033851;27;100114;-57
2021/09/27 07:13:17;;;;;;;3.60;2.30;;;;;;;;;;1043054;27;101768;-58
2021/09/27 07:13:48;;;;;;;5.97;1.73;;;;;;;;;;1044735;27;100426;-58
2021/09/27 07:14:19;;;;;;;10.05;1.90;;;;;;;;;;1042693;27;100536;-58
2021/09/27 07:14:50;;;;;;;7.05;2.10;;;;;;;;;;1044877;27;99933;-57
2021/09/27 07:15:21;;;;;;;7.25;1.88;;;;;;;;;;1044320;27;101288;-57
2021/09/27 07:15:52;;;;;;;5.20;2.10;;;;;;;;;;1046311;27;100145;-57
2021/09/27 07:16:23;;;;;;;5.63;2.13;;;;;;;;;;1051743;27;101308;-58
2021/09/27 07:16:54;;;;;;;5.90;2.08;;;;;;;;;;1053665;27;99826;-57
2021/09/27 07:17:25;;;;;;;10.82;2.10;;;;;;;;;;1051590;27;101664;-57
2021/09/27 07:17:55;;;;;;;5.43;2.25;;;;;;;;;;1053424;27;99931;-57
2021/09/27 07:18:26;;;;;;;8.75;2.20;;;;;;;;;;1051669;27;100337;-57
2021/09/27 07:18:57;;;;;;;5.43;2.00;;;;;;;;;;1053404;27;99916;-57
2021/09/27 07:19:28;;;;;;;8.35;1.80;;;;;;;;;;1056450;27;100501;-57
2021/09/27 07:19:59;;;;;;;3.22;1.80;;;;;;;;;;1058041;27;100097;-57
2021/09/27 07:20:30;;;;;;;2.40;1.60;;;;;;;;;;1052226;27;100508;-57
2021/09/27 07:21:02;;;;;;;3.13;1.95;;;;;;;;;;1053583;27;100046;-57
2021/09/27 07:21:34;;;;;;;2.33;2.08;;;;;;;;;;1047333;27;101880;-57
2021/09/27 07:22:05;;;;;;;6.35;2.00;;;;;;;;;;1044963;27;99897;-57
2021/09/27 07:22:35;;;;;;;3.85;1.83;;;;;;;;;;1043880;27;101246;-57
2021/09/27 07:23:07;;;;;;;5.53;2.20;;;;;;;;;;1046934;27;100043;-57
2021/09/27 07:23:38;;;;;;;4.95;2.30;;;;;;;;;;1050272;27;100515;-57
2021/09/27 07:24:10;;;;;;;3.97;2.08;;;;;;;;;;1057872;27;100188;-58
2021/09/27 07:24:41;;;;;;;3.38;2.20;;;;;;;;;;1056005;27;101387;-63
2021/09/27 07:25:14;;;;;;;4.57;1.92;;;;;;;;;;1053395;27;100097;-63
2021/09/27 07:25:45;;;;;;;8.15;2.60;;;;;;;;;;1052849;27;100807;-61
2021/09/27 07:26:17;;;;;;;3.60;1.95;;;;;;;;;;1055197;27;99971;-61
2021/09/27 07:26:48;;;;;;;3.75;2.03;;;;;;;;;;1054972;27;100428;-62
2021/09/27 07:27:19;;;;;;;5.05;1.70;;;;;;;;;;1044629;27;100080;-61
2021/09/27 07:27:50;;;;;;;8.95;2.10;;;;;;;;;;1043454;27;100460;-62
2021/09/27 07:28:22;;;;;;;7.30;2.28;;;;;;;;;;1044953;27;100032;-58
2021/09/27 07:28:53;;;;;;;6.40;2.10;;;;;;;;;;1044314;27;100882;-58
2021/09/27 07:29:25;;;;;;;9.50;2.53;;;;;;;;;;1052642;27;100104;-57
2021/09/27 07:29:56;;;;;;;7.78;2.35;;;;;;;;;;1051634;27;101457;-58
2021/09/27 07:30:28;;;;;;;6.78;2.40;;;;;;;;;;1052966;27;100137;-58
2021/09/27 07:30:59;;;;;;;7.85;2.00;;;;;;;;;;1047059;27;101443;-59
2021/09/27 07:31:31;;;;;;;4.72;2.17;;;;;;;;;;1048233;27;100363;-58
2021/09/27 07:32:03;;;;;;;7.18;2.70;;;;;;;;;;1038575;28;100519;-59
2021/09/27 07:32:34;;;;;;;6.72;2.47;;;;;;;;;;1031563;28;100287;-58
2021/09/27 07:33:05;;;;;;;5.65;2.25;;;;;;;;;;1034562;28;101631;-57
2021/09/27 07:33:36;;;;;;;7.78;2.13;;;;;;;;;;1037000;27;99994;-57
2021/09/27 07:34:08;;;;;;;7.68;2.60;;;;;;;;;;1040089;27;100404;-58
2021/09/27 07:34:39;;;;;;;6.45;2.28;;;;;;;;;;1048260;27;100097;-58
2021/09/27 07:35:13;;;;;;;9.68;2.55;;;;;;;;;;1047680;27;100434;-57
2021/09/27 07:35:44;;;;;;;7.32;2.70;;;;;;;;;;1049155;27;99882;-59
2021/09/27 07:36:15;;;;;;;6.22;3.13;;;;;;;;;;1052040;27;100485;-58
2021/09/27 07:36:47;;;;;;;5.07;2.00;;;;;;;;;;1052757;27;100159;-58
2021/09/27 07:37:18;;;;;;;5.50;2.20;;;;;;;;;;1052012;27;100539;-58
2021/09/27 07:37:49;;;;;;;6.55;2.75;;;;;;;;;;1052986;27;100122;-58
2021/09/27 07:38:20;;;;;;;4.25;2.42;;;;;;;;;;1052123;27;100212;-59
2021/09/27 07:38:51;;;;;;;6.82;2.30;;;;;;;;;;1048826;27;99936;-59
2021/09/27 07:39:22;;;;;;;4.72;2.30;;;;;;;;;;1047128;27;101603;-60
2021/09/27 07:39:53;;;;;;;5.68;2.25;;;;;;;;;;1048289;27;99912;-57
2021/09/27 07:40:26;;;;;;;5.30;2.15;;;;;;;;;;1047497;27;101249;-58
2021/09/27 07:40:57;;;;;;;6.03;2.40;;;;;;;;;;1053250;27;99916;-57
2021/09/27 07:41:29;;;;;;;7.60;2.33;;;;;;;;;;1051963;27;100882;-57
2021/09/27 07:42:00;;;;;;;11.27;2.60;;;;;;;;;;1053039;27;100019;-57
2021/09/27 07:42:31;;;;;;;8.25;2.40;;;;;;;;;;1051891;27;100767;-57
2021/09/27 07:43:02;;;;;;;6.85;2.22;;;;;;;;;;1053074;27;99876;-58
2021/09/27 07:43:33;;;;;;;6.13;2.38;;;;;;;;;;1051850;27;101670;-57
2021/09/27 07:44:05;;;;;;;6.07;2.50;;;;;;;;;;1053073;27;99907;-57
2021/09/27 07:44:36;;;;;;;6.20;2.75;;;;;;;;;;1046866;27;101797;-57
2021/09/27 07:45:09;;;;;;;10.93;2.17;;;;;;;;;;1048579;27;99864;-57
2021/09/27 07:45:40;;;;;;;3.40;2.03;;;;;;;;;;1047476;27;100535;-57
2021/09/27 07:46:12;;;;;;;9.43;2.80;;;;;;;;;;1049274;27;99768;-57
2021/09/27 07:46:42;;;;;;;5.68;2.45;;;;;;;;;;1052074;27;100764;-57
2021/09/27 07:47:13;;;;;;;4.13;2.33;;;;;;;;;;1053049;27;100016;-57
2021/09/27 07:47:44;;;;;;;9.23;2.70;;;;;;;;;;1051779;27;101251;-57
2021/09/27 07:48:16;;;;;;;8.20;2.40;;;;;;;;;;1050823;27;99842;-57
2021/09/27 07:48:47;;;;;;;7.00;2.20;;;;;;;;;;1048779;27;101346;-57
2021/09/27 07:49:17;;;;;;;3.42;1.98;;;;;;;;;;1050465;27;99849;-57
2021/09/27 07:49:48;;;;;;;4.70;2.30;;;;;;;;;;1049036;27;100372;-57
2021/09/27 07:50:20;;;;;;;7.20;2.58;;;;;;;;;;1050453;27;99936;-57
2021/09/27 07:50:53;;;;;;;4.10;2.17;;;;;;;;;;1049118;27;100900;-57
2021/09/27 07:51:25;;;;;;;5.97;2.50;;;;;;;;;;1050424;27;100002;-57
2021/09/27 07:51:57;;;;;;;6.18;2.55;;;;;;;;;;1049154;27;100459;-57
2021/09/27 07:52:28;;;;;;;5.60;2.60;;;;;;;;;;1049970;27;99852;-57
2021/09/27 07:52:59;;;;;;;5.53;2.40;;;;;;;;;;1049166;27;100487;-57
2021/09/27 07:53:30;;;;;;;5.20;2.47;;;;;;;;;;1050533;27;100028;-57
2021/09/27 07:54:01;;;;;;;7.93;2.50;;;;;;;;;;1049110;27;100516;-58
2021/09/27 07:54:33;;;;;;;6.97;1.98;;;;;;;;;;1050001;27;100117;-58
2021/09/27 07:55:06;;;;;;;6.32;2.60;;;;;;;;;;1044471;27;100503;-58
2021/09/27 07:55:37;;;;;;;5.00;2.45;;;;;;;;;;1045674;27;99869;-57
2021/09/27 07:56:08;;;;;;;5.05;2.08;;;;;;;;;;1044806;27;100597;-57
2021/09/27 07:56:39;;;;;;;4.90;2.20;;;;;;;;;;1046264;27;100425;-57
2021/09/27 07:57:10;;;;;;;4.93;2.28;;;;;;;;;;1049234;27;100125;-58
2021/09/27 07:57:41;;;;;;;4.03;2.25;;;;;;;;;;1040936;28;99946;-58
2021/09/27 07:58:15;;;;;;;8.65;2.95;;;;;;;;;;1035678;28;101614;-58
2021/09/27 07:58:45;;;;;;;7.20;2.72;;;;;;;;;;1037060;28;100274;-57
2021/09/27 07:59:17;;;;;;;3.08;2.03;;;;;;;;;;1037076;27;101406;-58
2021/09/27 07:59:50;;;;;;;3.92;2.10;;;;;;;;;;1046185;27;99904;-58
2021/09/27 08:00:21;;;;;;;4.78;2.45;;;;;;;;;;1044713;27;100832;-58
2021/09/27 08:00:52;;;;;;;9.93;2.60;;;;;;;;;;1045293;27;99265;-58
2021/09/27 08:01:23;;;;;;;5.95;2.47;;;;;;;;;;1044745;27;100430;-58
2021/09/27 08:01:54;;;;;;;8.38;2.53;;;;;;;;;;1045752;27;100003;-58
2021/09/27 08:02:30;;;;;;;4.05;2.30;;;;;;;;;;1048971;27;101723;-58
2021/09/27 08:03:01;;;;;;;5.88;2.10;;;;;;;;;;1050209;27;100056;-58
2021/09/27 08:03:31;;;;;;;4.57;2.58;;;;;;;;;;1048943;27;101698;-57
2021/09/27 08:04:03;;;;;;;6.95;2.20;;;;;;;;;;1040974;28;100088;-58
2021/09/27 08:04:35;;;;;;;7.68;2.55;;;;;;;;;;1040016;28;100745;-58
2021/09/27 08:05:06;;;;;;;4.32;2.55;;;;;;;;;;1040866;28;101774;-58
2021/09/27 08:05:38;;;;;;;8.23;2.40;;;;;;;;;;1036949;27;101545;-58
2021/09/27 08:06:09;;;;;;;5.63;2.63;;;;;;;;;;1045845;27;100182;-57
2021/09/27 08:06:40;;;;;;;5.00;2.40;;;;;;;;;;1044559;27;101326;-58
2021/09/27 08:07:11;;;;;;;7.03;2.10;;;;;;;;;;1045852;27;100072;-58
2021/09/27 08:07:42;;;;;;;7.70;2.55;;;;;;;;;;1049242;27;100812;-57
2021/09/27 08:08:13;;;;;;;4.85;2.47;;;;;;;;;;1050259;27;99900;-58
2021/09/27 08:08:44;;;;;;;5.45;2.20;;;;;;;;;;1049259;27;100702;-58
2021/09/27 08:09:15;;;;;;;5.07;2.28;;;;;;;;;;1050234;27;99879;-58
2021/09/27 08:09:46;;;;;;;7.13;2.45;;;;;;;;;;1049234;27;100525;-58
2021/09/27 08:10:17;;;;;;;4.35;2.38;;;;;;;;;;1049988;27;99905;-58
2021/09/27 08:10:48;;;;;;;9.63;2.45;;;;;;;;;;1048904;27;101708;-58
2021/09/27 08:11:19;;;;;;;8.63;2.95;;;;;;;;;;1050231;27;99999;-58
2021/09/27 08:11:50;;;;;;;3.80;2.35;;;;;;;;;;1049270;27;100802;-58
2021/09/27 08:12:20;;;;;;;4.53;2.45;;;;;;;;;;1050086;27;99869;-58
2021/09/27 08:12:51;;;;;;;9.98;2.28;;;;;;;;;;1049138;27;100509;-58
2021/09/27 08:13:22;;;;;;;7.22;2.45;;;;;;;;;;1049717;27;100184;-58
2021/09/27 08:13:53;;;;;;;4.65;2.55;;;;;;;;;;1049121;27;100232;-58
2021/09/27 08:14:24;;;;;;;7.13;2.72;;;;;;;;;;1050205;27;99939;-58
2021/09/27 08:14:56;;;;;;;4.40;2.25;;;;;;;;;;1049035;27;100704;-58
2021/09/27 08:15:29;;;;;;;7.88;2.65;;;;;;;;;;1050018;27;100143;-58
2021/09/27 08:16:01;;;;;;;6.20;2.35;;;;;;;;;;1049100;27;100795;-58
2021/09/27 08:16:32;;;;;;;10.05;2.67;;;;;;;;;;1050487;27;100089;-58
2021/09/27 08:17:03;;;;;;;6.55;2.45;;;;;;;;;;1048886;27;101418;-58
2021/09/27 08:17:34;;;;;;;6.13;2.53;;;;;;;;;;1050067;27;99923;-58
2021/09/27 08:18:07;;;;;;;9.07;2.88;;;;;;;;;;1035510;28;100555;-58
2021/09/27 08:18:38;;;;;;;4.97;2.42;;;;;;;;;;1037275;28;99911;-57
2021/09/27 08:19:09;;;;;;;7.65;2.80;;;;;;;;;;1035821;28;101012;-57
2021/09/27 08:19:43;;;;;;;4.68;2.45;;;;;;;;;;1038855;27;100019;-57
2021/09/27 08:20:17;;;;;;;6.15;2.70;;;;;;;;;;1048723;27;100432;-57
2021/09/27 08:20:49;;;;;;;4.57;2.30;;;;;;;;;;1049832;27;99914;-58
2021/09/27 08:21:21;;;;;;;4.38;2.30;;;;;;;;;;1048481;27;101263;-57
2021/09/27 08:21:52;;;;;;;12.43;2.90;;;;;;;;;;1049977;27;99949;-58
2021/09/27 08:22:23;;;;;;;5.35;2.40;;;;;;;;;;1048784;27;100832;-56
2021/09/27 08:22:54;;;;;;;5.97;2.17;;;;;;;;;;1050174;27;99845;-57
2021/09/27 08:23:25;;;;;;;6.00;2.55;;;;;;;;;;1048943;27;100587;-57
2021/09/27 08:23:56;;;;;;;6.03;2.20;;;;;;;;;;1050065;27;99741;-57
2021/09/27 08:24:27;;;;;;;4.85;2.38;;;;;;;;;;1048736;27;101437;-56
2021/09/27 08:24:58;;;;;;;6.93;2.60;;;;;;;;;;1050253;27;99848;-57
2021/09/27 08:25:29;;;;;;;5.38;2.20;;;;;;;;;;1048801;27;100697;-57
2021/09/27 08:26:00;;;;;;;12.52;2.72;;;;;;;;;;1050394;27;99912;-57
2021/09/27 08:26:32;;;;;;;9.30;2.35;;;;;;;;;;1039705;28;100343;-58
2021/09/27 08:27:03;;;;;;;4.80;2.50;;;;;;;;;;1041403;28;100288;-55
2021/09/27 08:27:34;;;;;;;6.10;2.20;;;;;;;;;;1039901;27;101337;-59
2021/09/27 08:28:06;;;;;;;8.48;2.22;;;;;;;;;;1041612;27;100001;-57
2021/09/27 08:28:38;;;;;;;5.38;2.60;;;;;;;;;;1048740;27;101648;-57
2021/09/27 08:29:10;;;;;;;4.72;2.15;;;;;;;;;;1050142;27;100144;-56
2021/09/27 08:29:40;;;;;;;9.98;2.50;;;;;;;;;;1049025;27;100742;-57
2021/09/27 08:30:16;;;;;;;5.07;2.40;;;;;;;;;;1045556;27;100023;-58
2021/09/27 08:30:50;;;;;;;6.28;2.50;;;;;;;;;;1044439;27;100442;-58
2021/09/27 08:31:22;;;;;;;4.13;2.60;;;;;;;;;;1045578;27;100026;-57
2021/09/27 08:31:53;;;;;;;5.40;2.20;;;;;;;;;;1045863;27;100507;-57
2021/09/27 08:32:24;;;;;;;3.78;2.25;;;;;;;;;;1036735;28;99875;-57
2021/09/27 08:32:55;;;;;;;3.55;2.03;;;;;;;;;;1035875;28;100583;-57
2021/09/27 08:33:27;;;;;;;6.97;2.28;;;;;;;;;;1037074;28;100093;-57
2021/09/27 08:33:57;;;;;;;2.80;2.25;;;;;;;;;;1036756;27;100638;-57
2021/09/27 08:34:28;;;;;;;6.65;2.20;;;;;;;;;;1050231;27;100093;-57
2021/09/27 08:34:59;;;;;;;5.60;2.40;;;;;;;;;;1048989;27;100397;-57
2021/09/27 08:35:30;;;;;;;5.68;2.40;;;;;;;;;;1050155;27;99998;-56
2021/09/27 08:36:04;;;;;;;3.72;2.20;;;;;;;;;;1048631;27;101403;-59
2021/09/27 08:36:35;;;;;;;3.03;2.22;;;;;;;;;;1036465;28;100134;-57
2021/09/27 08:37:07;;;;;;;7.32;2.40;;;;;;;;;;1035511;28;101953;-58
2021/09/27 08:37:38;;;;;;;6.85;2.33;;;;;;;;;;1037001;28;100027;-58
2021/09/27 08:38:09;;;;;;;5.05;2.35;;;;;;;;;;1036862;27;101465;-58
2021/09/27 08:38:41;;;;;;;4.45;2.40;;;;;;;;;;1050250;27;100035;-58
2021/09/27 08:39:12;;;;;;;4.43;2.17;;;;;;;;;;1048992;27;100795;-58
2021/09/27 08:39:46;;;;;;;5.40;2.22;;;;;;;;;;1050173;27;99908;-58
2021/09/27 08:40:32;;;;;;;3.88;2.42;;;;;;;;;;1035172;28;100805;-58
2021/09/27 08:41:09;;;;;;;5.53;2.30;;;;;;;;;;1037252;28;99889;-58
2021/09/27 08:42:00;;;;;;;5.95;2.38;;;;;;;;;;1035855;28;101100;-58
2021/09/27 08:42:36;;;;;;;;;;;;;;;;;;1045639;27;100242;-58
2021/09/27 08:43:42;;;;;;;3.58;2.22;;;;;;;;;;1040451;28;100365;-58
2021/09/27 08:44:37;;;;;;;5.95;2.28;;;;;;;;;;1016603;28;100103;-57
2021/09/27 08:45:15;;;;;;;6.75;2.60;;;;;;;;;;1044433;27;100426;-57
2021/09/27 08:45:47;;;;;;;6.85;2.20;;;;;;;;;;1041661;27;100208;-57
2021/09/27 08:46:37;;;;;;;6.25;2.05;;;;;;;;;;1040345;28;100575;-57
2021/09/27 08:47:13;;;;;;;4.38;2.10;;;;;;;;;;1032540;28;99947;-57
2021/09/27 08:48:01;;;;;;;5.93;2.28;;;;;;;;;;1031593;28;100802;-58
2021/09/27 08:49:10;;;;;;;4.88;2.30;;;;;;;;;;1032743;28;100095;-57
2021/09/27 08:49:43;;;;;;;7.43;2.50;;;;;;;;;;1044162;27;101730;-58
2021/09/27 08:50:33;;;;;;;5.45;2.30;;;;;;;;;;1042949;27;99974;-62
2021/09/27 08:51:04;;;;;;;4.13;2.38;;;;;;;;;;1044161;27;100508;-58
2021/09/27 08:51:37;;;;;;;4.50;1.95;;;;;;;;;;1041244;28;99914;-58
2021/09/27 08:52:12;;;;;;;6.93;2.70;;;;;;;;;;1043469;27;100481;-57
2021/09/27 08:52:42;;;;;;;4.88;2.15;;;;;;;;;;1037055;28;100124;-57
2021/09/27 08:53:25;;;;;;;4.30;2.30;;;;;;;;;;1036906;28;100412;-58
2021/09/27 08:53:56;;;;;;;4.85;2.33;;;;;;;;;;1041170;28;99998;-56
2021/09/27 08:54:29;;;;;;;3.95;2.40;;;;;;;;;;1044169;27;100173;-56
2021/09/27 08:55:02;;;;;;;11.30;2.60;;;;;;;;;;1045309;27;100232;-57
2021/09/27 08:55:34;;;;;;;7.38;2.60;;;;;;;;;;1035662;28;103418;-57
2021/09/27 08:56:07;;;;;;;4.65;2.03;;;;;;;;;;1037116;28;100047;-58
2021/09/27 08:56:42;;;;;;;5.88;2.28;;;;;;;;;;1036648;28;101763;-58
2021/09/27 08:57:34;;;;;;;4.78;2.25;;;;;;;;;;1042297;27;99978;-59
2021/09/27 08:58:31;;;;;;;5.18;2.20;;;;;;;;;;1040065;28;103086;-57
2021/09/27 08:59:10;;;;;;;3.85;2.05;;;;;;;;;;1035291;28;100139;-57
2021/09/27 08:59:46;;;;;;;5.05;2.78;;;;;;;;;;1032310;28;100442;-57
2021/09/27 09:00:33;;;;;;;6.90;2.30;;;;;;;;;;1032548;28;99884;-57
2021/09/27 09:01:11;;;;;;;4.13;2.05;;;;;;;;;;1035653;28;100426;-57
2021/09/27 09:02:23;;;;;;;7.60;2.72;;;;;;;;;;1037410;28;100137;-58
2021/09/27 09:03:26;;;;;;;4.28;2.30;;;;;;;;;;1021872;28;101419;-58
2021/09/27 09:04:07;;;;;;;4.80;2.22;;;;;;;;;;1028139;28;100066;-57
2021/09/27 09:04:47;;;;;;;4.57;2.25;;;;;;;;;;1023671;28;100452;-57
2021/09/27 09:05:32;;;;;;;6.07;2.67;;;;;;;;;;1028512;28;100093;-57
2021/09/27 09:06:16;;;;;;;7.80;2.47;;;;;;;;;;1027370;28;101927;-58
2021/09/27 09:06:51;;;;;;;2.53;1.88;;;;;;;;;;1029065;28;99907;-57
2021/09/27 09:07:23;;;;;;;4.13;2.22;;;;;;;;;;1027591;28;100701;-57
2021/09/27 09:08:05;;;;;;;3.83;2.28;;;;;;;;;;1024687;28;100094;-57
2021/09/27 09:08:46;;;;;;;7.97;2.17;;;;;;;;;;1023731;28;100707;-58
2021/09/27 09:09:49;;;;;;;12.98;2.58;;;;;;;;;;1024626;28;99529;-58
2021/09/27 09:10:38;;;;;;;4.35;2.10;;;;;;;;;;1027284;28;100571;-58
2021/09/27 09:11:27;;;;;;;5.20;2.50;;;;;;;;;;1028781;28;100384;-63
2021/09/27 09:12:02;;;;;;;4.18;1.85;;;;;;;;;;1027397;28;101418;-59
2021/09/27 09:12:55;;;;;;;6.00;2.58;;;;;;;;;;1028707;28;100133;-61
2021/09/27 09:13:37;;;;;;;6.18;2.63;;;;;;;;;;1027251;28;101516;-57
2021/09/27 09:14:15;;;;;;;3.95;2.00;;;;;;;;;;1028255;28;100228;-57
2021/09/27 09:14:49;;;;;;;6.85;2.72;;;;;;;;;;1023532;28;100249;-57
2021/09/27 09:15:26;;;;;;;4.60;2.30;;;;;;;;;;1027595;28;100166;-58
2021/09/27 09:16:02;;;;;;;11.60;2.67;;;;;;;;;;1027465;28;101113;-57
2021/09/27 09:16:33;;;;;;;11.57;3.10;;;;;;;;;;1028662;28;99957;-57
2021/09/27 09:17:25;;;;;;;5.10;2.58;;;;;;;;;;1027231;28;101804;-58
2021/09/27 09:18:17;;;;;;;6.70;2.53;;;;;;;;;;1028594;28;100188;-56
2021/09/27 09:18:56;;;;;;;5.90;2.70;;;;;;;;;;1027471;28;101650;-58
2021/09/27 09:19:31;;;;;;;8.95;2.80;;;;;;;;;;1028967;28;99869;-59
2021/09/27 09:20:11;;;;;;;6.97;2.75;;;;;;;;;;1027461;28;100611;-59
2021/09/27 09:20:55;;;;;;;5.03;2.57;;;;;;;;;;1028992;28;100302;-57
2021/09/27 09:21:40;;;;;;;8.98;2.80;;;;;;;;;;1027217;28;101438;-57
2021/09/27 09:22:19;;;;;;;9.15;2.53;;;;;;;;;;1028631;28;99930;-57
2021/09/27 09:22:51;;;;;;;7.05;2.90;;;;;;;;;;1023658;28;100603;-57
2021/09/27 09:23:33;;;;;;;5.95;2.67;;;;;;;;;;1024735;28;100012;-57
2021/09/27 09:24:07;;;;;;;9.70;2.70;;;;;;;;;;1023563;28;100824;-57
2021/09/27 09:24:39;;;;;;;4.97;2.72;;;;;;;;;;1022860;28;99921;-58
2021/09/27 09:25:18;;;;;;;8.27;3.10;;;;;;;;;;1023237;28;101483;-57
2021/09/27 09:25:49;;;;;;;4.93;2.63;;;;;;;;;;1025000;28;100174;-57
2021/09/27 09:26:35;;;;;;;9.65;2.58;;;;;;;;;;1024623;28;100779;-57
2021/09/27 09:27:11;;;;;;;6.28;2.63;;;;;;;;;;1028677;28;99304;-58
2021/09/27 09:27:43;;;;;;;9.48;2.70;;;;;;;;;;1027698;28;100469;-57
2021/09/27 09:28:14;;;;;;;6.55;2.75;;;;;;;;;;1028438;28;99936;-57
2021/09/27 09:28:47;;;;;;;8.48;2.80;;;;;;;;;;1027345;28;100866;-57
2021/09/27 09:29:26;;;;;;;7.07;2.97;;;;;;;;;;1028515;28;100017;-57
2021/09/27 09:29:57;;;;;;;6.95;2.90;;;;;;;;;;1027718;28;100533;-57
2021/09/27 09:30:35;;;;;;;7.47;2.70;;;;;;;;;;1024245;28;100222;-57
2021/09/27 09:31:33;;;;;;;7.28;2.67;;;;;;;;;;1023611;28;100955;-57
2021/09/27 09:32:23;;;;;;;7.10;2.95;;;;;;;;;;1024858;28;100016;-57
2021/09/27 09:32:54;;;;;;;6.93;2.72;;;;;;;;;;1023448;28;100490;-57
2021/09/27 09:33:43;;;;;;;5.20;2.70;;;;;;;;;;1024728;28;100079;-57
2021/09/27 09:34:16;;;;;;;5.25;2.70;;;;;;;;;;1026954;28;100630;-57
2021/09/27 09:34:49;;;;;;;5.68;2.50;;;;;;;;;;1028426;28;99969;-57
2021/09/27 09:35:20;;;;;;;6.22;2.42;;;;;;;;;;1027306;28;100592;-57
2021/09/27 09:35:55;;;;;;;3.90;2.50;;;;;;;;;;1024685;28;100245;-57
2021/09/27 09:36:38;;;;;;;5.55;2.85;;;;;;;;;;1022756;28;100372;-56
2021/09/27 09:37:25;;;;;;;7.45;2.95;;;;;;;;;;1024482;28;100167;-57
2021/09/27 09:38:13;;;;;;;10.98;3.00;;;;;;;;;;1027440;28;100434;-56
2021/09/27 09:38:45;;;;;;;9.80;2.80;;;;;;;;;;1024550;28;100206;-57
2021/09/27 09:39:26;;;;;;;8.82;3.08;;;;;;;;;;1027606;28;100815;-57
2021/09/27 09:39:57;;;;;;;11.90;2.95;;;;;;;;;;1045522;27;99817;-56
2021/09/27 09:40:50;;;;;;;11.88;2.67;;;;;;;;;;1046016;27;101463;-57
2021/09/27 09:41:21;;;;;;;12.85;3.10;;;;;;;;;;1050009;27;100101;-56
2021/09/27 09:41:55;;;;;;;7.75;2.47;;;;;;;;;;1048725;27;100379;-56
2021/09/27 09:42:32;;;;;;;6.72;3.08;;;;;;;;;;1050157;27;99788;-57
2021/09/27 09:43:06;;;;;;;7.50;2.60;;;;;;;;;;1048121;27;101266;-57
2021/09/27 09:43:40;;;;;;;8.10;2.50;;;;;;;;;;1050126;27;100014;-58
2021/09/27 09:44:26;;;;;;;12.02;3.20;;;;;;;;;;1048640;27;100378;-57
2021/09/27 09:45:16;;;;;;;8.07;2.78;;;;;;;;;;1049667;27;99266;-57
2021/09/27 09:46:03;;;;;;;15.63;3.33;;;;;;;;;;1048918;27;100824;-58
2021/09/27 09:46:35;;;;;;;14.20;3.60;;;;;;;;;;1049770;27;99882;-58
2021/09/27 09:47:13;;;;;;;17.70;3.30;;;;;;;;;;1048468;27;101790;-57
2021/09/27 09:47:45;;;;;;;9.20;3.00;;;;;;;;;;1045195;27;99966;-58
2021/09/27 09:48:26;;;;;;;13.20;3.78;;;;;;;;;;1044406;27;100467;-59
2021/09/27 09:49:06;;;;;;;15.80;3.15;;;;;;;;;;1045486;27;99876;-56
2021/09/27 09:49:52;;;;;;;10.23;2.90;;;;;;;;;;1043996;27;101373;-57
2021/09/27 09:50:23;;;;;;;8.43;2.53;;;;;;;;;;1049920;27;99235;-56
2021/09/27 09:50:59;;;;;;;10.15;3.03;;;;;;;;;;1048743;27;100694;-56
2021/09/27 09:51:49;;;;;;;15.00;3.58;;;;;;;;;;1050076;27;99924;-56
2021/09/27 09:52:43;;;;;;;14.48;2.90;;;;;;;;;;1044376;27;100443;-55
2021/09/27 09:53:26;;;;;;;11.02;2.50;;;;;;;;;;1045296;27;99966;-56
2021/09/27 09:54:24;;;;;;;8.77;2.63;;;;;;;;;;1045267;27;100197;-55
2021/09/27 09:54:56;;;;;;;13.70;3.50;;;;;;;;;;1044885;27;99560;-56
2021/09/27 09:55:37;;;;;;;12.52;2.97;;;;;;;;;;1048660;27;100786;-57
2021/09/27 09:56:17;;;;;;;12.15;2.80;;;;;;;;;;1049862;27;99865;-57
2021/09/27 09:57:07;;;;;;;9.95;3.05;;;;;;;;;;1044005;27;100424;-57
2021/09/27 09:57:40;;;;;;;11.52;3.15;;;;;;;;;;1044714;27;100037;-57
2021/09/27 09:58:30;;;;;;;17.30;3.25;;;;;;;;;;1040173;28;100505;-58
2021/09/27 09:59:21;;;;;;;11.18;3.05;;;;;;;;;;1041062;28;99960;-57
2021/09/27 10:00:09;;;;;;;14.00;3.20;;;;;;;;;;1045879;27;100371;-58
2021/09/27 10:00:52;;;;;;;13.93;3.03;;;;;;;;;;1045276;27;100075;-58
2021/09/27 10:01:27;;;;;;;11.00;2.70;;;;;;;;;;1044239;27;100573;-57
2021/09/27 10:01:59;;;;;;;11.90;3.00;;;;;;;;;;1041079;28;100061;-57